Time;durP1;ratioP1;P1;durP2;ratioP2;P2;SDS_P1;SDS_P2;PMS_P1;PMS_P2;Temp;Humidity;BMP_temperature;BMP_pressure;BME280_temperature;BME280_humidity;BME280_pressure;Samples;Min_cycle;Max_cycle;Signal;HPM_P1;HPM_P2
2022/10/24 00:00:07;;;;;;;;;;;14.50;99.90;;;;;;12552086;28;19932;-39
2022/10/24 00:06:09;;;;;;;;;;;14.50;99.90;;;;;;12513260;28;19936;-39
2022/10/24 00:12:11;;;;;;;;;;;14.60;99.90;;;;;;12502794;28;19931;-39
2022/10/24 00:18:13;;;;;;;;;;;14.60;99.90;;;;;;12540357;28;19929;-38
2022/10/24 00:24:14;;;;;;;;;;;14.70;99.90;;;;;;12557009;28;19932;-39
2022/10/24 00:30:16;;;;;;;;;;;14.70;99.90;;;;;;12557560;28;19928;-39
2022/10/24 00:36:20;;;;;;;;;;;14.80;99.90;;;;;;12547683;28;19924;-38
2022/10/24 00:42:22;;;;;;;;;;;14.90;99.90;;;;;;12545120;28;20319;-39
2022/10/24 00:48:30;;;;;;;;;;;14.90;99.90;;;;;;12551135;28;19933;-38
2022/10/24 00:54:32;;;;;;;;;;;14.90;99.90;;;;;;12553315;28;19971;-39
2022/10/24 01:00:34;;;;;;;;;;;15.00;99.90;;;;;;12537775;28;19940;-38
2022/10/24 01:06:45;;;;;;;;;;;15.00;99.90;;;;;;12556746;28;19925;-39
2022/10/24 01:13:06;;;;;;;;;;;15.00;99.90;;;;;;12550728;28;19929;-39
2022/10/24 01:19:10;;;;;;;;;;;15.10;99.90;;;;;;12545681;28;20023;-39
2022/10/24 01:25:34;;;;;;;;;;;15.20;99.90;;;;;;12544967;28;19930;-39
2022/10/24 01:32:06;;;;;;;;;;;15.20;99.90;;;;;;12545457;28;19928;-39
2022/10/24 01:38:11;;;;;;;;;;;15.30;99.90;;;;;;12536256;28;19936;-40
2022/10/24 01:44:19;;;;;;;;;;;15.20;99.90;;;;;;12542045;28;19929;-39
2022/10/24 01:50:23;;;;;;;;;;;15.20;99.90;;;;;;12548318;28;20257;-40
2022/10/24 01:56:25;;;;;;;;;;;15.30;99.90;;;;;;12548175;28;19936;-39
2022/10/24 02:02:30;;;;;;;;;;;15.30;99.90;;;;;;12549680;28;19929;-38
2022/10/24 02:08:33;;;;;;;;;;;15.30;99.90;;;;;;12546623;28;19997;-39
2022/10/24 02:14:37;;;;;;;;;;;15.30;99.90;;;;;;12545955;28;20019;-39
2022/10/24 02:20:47;;;;;;;;;;;15.40;99.90;;;;;;12535075;28;19932;-39
2022/10/24 02:26:51;;;;;;;;;;;15.40;99.90;;;;;;12543391;28;19932;-38
2022/10/24 02:32:55;;;;;;;;;;;15.40;99.90;;;;;;12534289;28;20300;-40
2022/10/24 02:38:56;;;;;;;;;;;15.50;99.90;;;;;;12545605;28;19925;-39
2022/10/24 02:44:59;;;;;;;;;;;15.60;99.90;;;;;;12552071;28;19928;-39
2022/10/24 02:51:01;;;;;;;;;;;15.70;99.90;;;;;;12561258;28;19925;-39
2022/10/24 02:57:03;;;;;;;;;;;15.70;99.90;;;;;;12554162;28;19925;-39
2022/10/24 03:03:05;;;;;;;;;;;15.60;99.90;;;;;;12565804;28;19929;-39
2022/10/24 03:09:06;;;;;;;;;;;15.70;99.90;;;;;;12556354;28;19925;-38
2022/10/24 03:15:08;;;;;;;;;;;15.60;99.90;;;;;;12562169;28;19928;-39
2022/10/24 03:21:10;;;;;;;;;;;15.70;99.90;;;;;;12555159;28;19977;-40
2022/10/24 03:27:12;;;;;;;;;;;15.60;99.90;;;;;;12562605;28;19955;-39
2022/10/24 03:33:14;;;;;;;;;;;15.50;99.90;;;;;;12567618;28;19947;-40
2022/10/24 03:39:16;;;;;;;;;;;15.40;99.90;;;;;;12548526;28;19928;-39
2022/10/24 03:45:17;;;;;;;;;;;15.50;99.90;;;;;;12563296;28;20288;-39
2022/10/24 03:51:19;;;;;;;;;;;15.60;99.90;;;;;;12557733;28;19933;-38
2022/10/24 03:57:21;;;;;;;;;;;15.50;99.90;;;;;;12554131;28;19932;-39
2022/10/24 04:03:24;;;;;;;;;;;15.60;99.90;;;;;;12559730;28;19928;-40
2022/10/24 04:09:26;;;;;;;;;;;15.60;99.90;;;;;;12558373;28;19928;-38
2022/10/24 04:15:28;;;;;;;;;;;15.70;99.90;;;;;;12544561;28;19925;-39
2022/10/24 04:21:30;;;;;;;;;;;15.60;99.90;;;;;;12549505;28;19928;-38
2022/10/24 04:27:31;;;;;;;;;;;15.70;99.90;;;;;;12537618;28;19924;-38
2022/10/24 04:33:35;;;;;;;;;;;15.60;99.90;;;;;;12553197;28;20367;-39
2022/10/24 04:39:36;;;;;;;;;;;15.50;99.90;;;;;;12547570;28;20055;-39
2022/10/24 04:45:38;;;;;;;;;;;15.50;99.90;;;;;;12550511;28;19928;-39
2022/10/24 04:51:40;;;;;;;;;;;15.60;99.90;;;;;;12554905;28;19928;-39
2022/10/24 04:57:42;;;;;;;;;;;15.60;99.90;;;;;;12544647;28;20019;-39
2022/10/24 05:03:44;;;;;;;;;;;15.60;99.90;;;;;;12559883;28;20115;-38
2022/10/24 05:09:46;;;;;;;;;;;15.50;99.90;;;;;;12555659;28;20011;-38
2022/10/24 05:15:48;;;;;;;;;;;15.50;99.90;;;;;;12546929;28;20484;-39
2022/10/24 05:21:49;;;;;;;;;;;15.50;99.90;;;;;;12532141;28;19928;-39
2022/10/24 05:27:51;;;;;;;;;;;15.50;99.90;;;;;;12550409;28;20003;-40
2022/10/24 05:33:53;;;;;;;;;;;15.50;99.90;;;;;;12531845;28;19929;-38
2022/10/24 05:39:55;;;;;;;;;;;15.50;99.90;;;;;;12555386;28;19925;-38
2022/10/24 05:45:56;;;;;;;;;;;15.40;99.90;;;;;;12533502;28;19924;-39
2022/10/24 05:51:58;;;;;;;;;;;15.50;99.90;;;;;;12549451;28;19928;-38
2022/10/24 05:58:00;;;;;;;;;;;15.50;99.90;;;;;;12552364;28;19931;-40
2022/10/24 06:04:02;;;;;;;;;;;15.50;99.90;;;;;;12533087;28;19968;-38
2022/10/24 06:10:05;;;;;;;;;;;15.60;99.90;;;;;;12544414;28;19932;-38
2022/10/24 06:16:08;;;;;;;;;;;15.60;99.90;;;;;;12516785;28;19928;-38
2022/10/24 06:22:10;;;;;;;;;;;15.50;99.90;;;;;;12530424;28;19955;-38
2022/10/24 06:28:13;;;;;;;;;;;15.40;99.90;;;;;;12547489;28;19949;-38
2022/10/24 06:34:15;;;;;;;;;;;15.40;99.90;;;;;;12553656;28;20397;-38
2022/10/24 06:40:17;;;;;;;;;;;15.50;99.90;;;;;;12541225;28;19929;-39
2022/10/24 06:46:22;;;;;;;;;;;15.40;99.90;;;;;;12538444;28;19936;-38
2022/10/24 06:52:23;;;;;;;;;;;15.40;99.90;;;;;;12545925;28;20399;-39
2022/10/24 06:58:28;;;;;;;;;;;15.50;99.90;;;;;;12533249;28;20015;-39
2022/10/24 07:04:30;;;;;;;;;;;15.60;99.90;;;;;;12551493;28;20300;-39
2022/10/24 07:10:32;;;;;;;;;;;15.70;99.90;;;;;;12539190;28;19989;-38
2022/10/24 07:16:34;;;;;;;;;;;15.70;99.90;;;;;;12545872;28;19932;-38
2022/10/24 07:22:35;;;;;;;;;;;15.60;99.90;;;;;;12537262;28;19936;-39
2022/10/24 07:28:38;;;;;;;;;;;15.70;99.90;;;;;;12534393;28;19933;-38
2022/10/24 07:34:40;;;;;;;;;;;16.00;99.90;;;;;;12551392;28;19933;-38
2022/10/24 07:40:42;;;;;;;;;;;16.00;99.90;;;;;;12549161;28;19928;-38
2022/10/24 07:46:43;;;;;;;;;;;16.00;99.90;;;;;;12550147;28;19924;-39
2022/10/24 07:52:45;;;;;;;;;;;16.10;99.90;;;;;;12542757;28;19954;-39
2022/10/24 07:58:47;;;;;;;;;;;16.20;99.90;;;;;;12544790;28;19931;-38
2022/10/24 08:04:48;;;;;;;;;;;16.20;99.90;;;;;;12559274;28;19925;-38
2022/10/24 08:10:50;;;;;;;;;;;16.50;99.90;;;;;;12550255;28;19928;-38
2022/10/24 08:16:52;;;;;;;;;;;16.50;99.90;;;;;;12537849;28;19925;-39
2022/10/24 08:22:54;;;;;;;;;;;16.50;99.90;;;;;;12553679;28;19935;-38
2022/10/24 08:28:56;;;;;;;;;;;16.50;99.90;;;;;;12537666;28;19925;-39
2022/10/24 08:34:58;;;;;;;;;;;16.70;99.90;;;;;;12543414;28;19939;-39
2022/10/24 08:41:00;;;;;;;;;;;16.80;99.90;;;;;;12541313;28;19936;-39
2022/10/24 08:47:08;;;;;;;;;;;16.90;99.90;;;;;;12537746;28;20443;-39
2022/10/24 08:53:14;;;;;;;;;;;17.30;99.90;;;;;;12552494;28;19972;-38
2022/10/24 08:59:16;;;;;;;;;;;17.50;99.90;;;;;;12555457;28;19924;-38
2022/10/24 09:05:22;;;;;;;;;;;17.60;99.90;;;;;;12553012;28;19924;-39
2022/10/24 09:11:43;;;;;;;;;;;17.50;99.90;;;;;;12557263;28;19931;-39
2022/10/24 09:17:45;;;;;;;;;;;17.40;99.90;;;;;;12542901;28;20376;-39
2022/10/24 09:23:49;;;;;;;;;;;17.60;99.90;;;;;;12547543;28;19924;-38
2022/10/24 09:29:51;;;;;;;;;;;17.90;99.90;;;;;;12545729;28;19936;-39
2022/10/24 09:35:54;;;;;;;;;;;18.20;99.90;;;;;;12543261;28;20357;-39
2022/10/24 09:41:57;;;;;;;;;;;18.00;99.90;;;;;;12553316;28;19925;-39
2022/10/24 09:48:00;;;;;;;;;;;17.70;99.90;;;;;;12550598;28;20296;-38
2022/10/24 09:54:06;;;;;;;;;;;17.50;99.90;;;;;;12537318;28;20281;-38
2022/10/24 10:00:25;;;;;;;;;;;17.40;99.90;;;;;;12553399;28;19947;-39
2022/10/24 10:06:27;;;;;;;;;;;17.30;99.90;;;;;;12549984;28;19924;-39
2022/10/24 10:12:33;;;;;;;;;;;17.20;99.90;;;;;;12555445;28;19924;-38
2022/10/24 10:18:38;;;;;;;;;;;17.10;99.90;;;;;;12556633;28;19929;-39
2022/10/24 10:24:41;;;;;;;;;;;17.10;99.90;;;;;;12558279;28;19936;-39
2022/10/24 10:30:47;;;;;;;;;;;17.00;99.90;;;;;;12554152;28;19924;-39
2022/10/24 10:36:57;;;;;;;;;;;17.00;99.90;;;;;;12558552;28;19925;-39
2022/10/24 10:43:37;;;;;;;;;;;17.20;99.90;;;;;;12559259;28;20023;-39
2022/10/24 10:49:40;;;;;;;;;;;17.20;99.90;;;;;;12345237;28;19980;-38
2022/10/24 10:55:47;;;;;;;;;;;17.10;99.90;;;;;;12523965;28;20288;-39
2022/10/24 11:01:57;;;;;;;;;;;17.00;99.90;;;;;;12543478;28;19925;-38
2022/10/24 11:08:18;;;;;;;;;;;16.80;99.90;;;;;;12556815;28;19952;-38
2022/10/24 11:14:32;;;;;;;;;;;16.60;99.90;;;;;;12551045;28;19928;-38
2022/10/24 11:20:41;;;;;;;;;;;16.30;99.90;;;;;;12565800;28;19925;-39
2022/10/24 11:26:52;;;;;;;;;;;16.50;99.90;;;;;;12539727;28;19925;-38
2022/10/24 11:32:57;;;;;;;;;;;16.60;99.90;;;;;;12556067;28;19932;-39
2022/10/24 11:39:18;;;;;;;;;;;16.60;99.90;;;;;;12547071;28;20015;-38
2022/10/24 11:45:23;;;;;;;;;;;16.60;99.90;;;;;;12552069;28;20296;-40
2022/10/24 11:51:28;;;;;;;;;;;16.80;99.90;;;;;;12539078;28;20364;-39
2022/10/24 11:57:31;;;;;;;;;;;17.30;99.90;;;;;;12554473;28;20365;-39
2022/10/24 12:03:47;;;;;;;;;;;17.80;99.90;;;;;;12551826;28;19976;-39
2022/10/24 12:10:04;;;;;;;;;;;17.70;99.90;;;;;;12567468;28;19925;-38
2022/10/24 12:16:06;;;;;;;;;;;17.30;99.90;;;;;;12564370;28;20426;-39
2022/10/24 12:22:13;;;;;;;;;;;17.10;99.90;;;;;;12559381;28;20318;-39
2022/10/24 12:28:21;;;;;;;;;;;17.40;99.90;;;;;;12537411;28;19971;-39
2022/10/24 12:34:23;;;;;;;;;;;17.20;99.90;;;;;;12547212;28;19925;-39
2022/10/24 12:40:44;;;;;;;;;;;17.00;99.90;;;;;;12551607;28;19925;-39
2022/10/24 12:46:46;;;;;;;;;;;17.10;99.90;;;;;;12547993;28;20365;-39
2022/10/24 12:52:47;;;;;;;;;;;17.50;99.90;;;;;;12550610;28;20475;-39
2022/10/24 12:58:56;;;;;;;;;;;17.40;99.90;;;;;;12564136;28;20013;-38
2022/10/24 13:05:07;;;;;;;;;;;17.30;99.90;;;;;;12550934;28;19925;-39
2022/10/24 13:11:18;;;;;;;;;;;17.60;99.90;;;;;;12552800;28;19924;-38
2022/10/24 13:17:39;;;;;;;;;;;17.10;99.90;;;;;;12541401;28;19982;-39
2022/10/24 13:23:44;;;;;;;;;;;16.80;99.90;;;;;;12545979;28;19940;-39
2022/10/24 13:29:46;;;;;;;;;;;16.60;99.90;;;;;;12546898;28;20003;-39
2022/10/24 13:35:48;;;;;;;;;;;16.50;99.90;;;;;;12552347;28;19947;-39
2022/10/24 13:41:56;;;;;;;;;;;16.50;99.90;;;;;;12551108;28;19932;-38
2022/10/24 13:48:06;;;;;;;;;;;16.70;99.90;;;;;;12548625;28;19924;-39
2022/10/24 13:54:35;;;;;;;;;;;16.80;99.90;;;;;;12540552;28;19925;-39
2022/10/24 14:00:38;;;;;;;;;;;16.80;99.90;;;;;;12534075;28;19925;-39
2022/10/24 14:06:39;;;;;;;;;;;16.70;99.90;;;;;;12560429;28;20307;-39
2022/10/24 14:12:43;;;;;;;;;;;16.90;99.90;;;;;;12553084;28;19932;-38
2022/10/24 14:18:45;;;;;;;;;;;16.70;99.90;;;;;;12559643;28;19939;-39
2022/10/24 14:24:48;;;;;;;;;;;16.70;99.90;;;;;;12552662;28;19931;-38
2022/10/24 14:30:57;;;;;;;;;;;16.60;99.90;;;;;;12539234;28;19925;-38
2022/10/24 14:37:04;;;;;;;;;;;16.60;99.90;;;;;;12544640;28;19929;-39
2022/10/24 14:43:11;;;;;;;;;;;16.60;99.90;;;;;;12545711;28;20372;-40
2022/10/24 14:49:25;;;;;;;;;;;16.50;99.90;;;;;;12539677;28;19928;-38
2022/10/24 14:55:26;;;;;;;;;;;16.50;99.90;;;;;;12557729;28;19929;-38
2022/10/24 15:01:28;;;;;;;;;;;16.40;99.90;;;;;;12543606;28;19931;-39
2022/10/24 15:07:35;;;;;;;;;;;16.50;99.90;;;;;;12552183;28;20301;-39
2022/10/24 15:13:43;;;;;;;;;;;16.40;99.90;;;;;;12548742;28;20367;-39
2022/10/24 15:20:00;;;;;;;;;;;16.30;99.90;;;;;;12539697;28;19925;-39
2022/10/24 15:26:07;;;;;;;;;;;16.20;99.90;;;;;;12544369;28;20407;-38
2022/10/24 15:32:09;;;;;;;;;;;16.30;99.90;;;;;;12535780;28;19929;-38
2022/10/24 15:38:15;;;;;;;;;;;16.30;99.90;;;;;;12537022;28;19982;-38
2022/10/24 15:44:23;;;;;;;;;;;16.20;99.90;;;;;;12547096;28;20427;-39
2022/10/24 15:50:24;;;;;;;;;;;16.20;99.90;;;;;;12538743;28;19933;-39
2022/10/24 15:56:26;;;;;;;;;;;16.20;99.90;;;;;;12553671;28;20004;-39
2022/10/24 16:02:28;;;;;;;;;;;16.10;99.90;;;;;;12557788;28;20331;-38
2022/10/24 16:08:30;;;;;;;;;;;16.00;99.90;;;;;;12562461;28;20058;-38
2022/10/24 16:14:32;;;;;;;;;;;15.80;99.90;;;;;;12547605;28;19925;-39
2022/10/24 16:20:34;;;;;;;;;;;15.80;99.90;;;;;;12544076;28;19932;-38
2022/10/24 16:26:37;;;;;;;;;;;15.80;99.90;;;;;;12556564;28;19936;-38
2022/10/24 16:32:39;;;;;;;;;;;15.50;99.90;;;;;;12536097;28;20422;-38
2022/10/24 16:38:41;;;;;;;;;;;15.50;99.90;;;;;;12545358;28;19929;-39
2022/10/24 16:44:43;;;;;;;;;;;15.40;99.90;;;;;;12534220;28;19925;-38
2022/10/24 16:50:45;;;;;;;;;;;15.20;99.90;;;;;;12550560;28;19925;-39
2022/10/24 16:56:48;;;;;;;;;;;15.20;99.90;;;;;;12555805;28;19977;-39
2022/10/24 17:02:56;;;;;;;;;;;15.30;99.90;;;;;;12547569;28;19928;-39
2022/10/24 17:08:58;;;;;;;;;;;15.20;99.90;;;;;;12546547;28;19931;-39
2022/10/24 17:15:00;;;;;;;;;;;15.00;99.90;;;;;;12548907;28;19977;-38
2022/10/24 17:21:02;;;;;;;;;;;15.00;99.90;;;;;;12548505;28;20023;-39
2022/10/24 17:27:09;;;;;;;;;;;14.90;99.90;;;;;;12547071;28;19925;-39
2022/10/24 17:33:10;;;;;;;;;;;14.70;99.90;;;;;;12533984;28;20015;-38
2022/10/24 17:39:36;;;;;;;;;;;14.60;99.90;;;;;;12533981;28;19932;-39
2022/10/24 17:45:43;;;;;;;;;;;14.60;99.90;;;;;;12535605;28;19936;-38
2022/10/24 17:51:46;;;;;;;;;;;14.50;99.90;;;;;;12540988;28;19936;-39
2022/10/24 17:57:47;;;;;;;;;;;14.50;99.90;;;;;;12559015;28;19969;-39
2022/10/24 18:03:49;;;;;;;;;;;14.40;99.90;;;;;;12540467;28;19932;-38
2022/10/24 18:09:58;;;;;;;;;;;14.40;99.90;;;;;;12547833;28;19936;-39
2022/10/24 18:16:04;;;;;;;;;;;14.30;99.90;;;;;;12528085;28;19925;-38
2022/10/24 18:22:06;;;;;;;;;;;14.30;99.90;;;;;;12533903;28;19959;-39
2022/10/24 18:28:08;;;;;;;;;;;14.20;99.90;;;;;;12540597;28;19925;-38
2022/10/24 18:34:10;;;;;;;;;;;14.20;99.90;;;;;;12549186;28;19924;-38
2022/10/24 18:40:12;;;;;;;;;;;14.10;99.90;;;;;;12542687;28;19936;-39
2022/10/24 18:46:14;;;;;;;;;;;14.10;99.90;;;;;;12550410;28;19982;-38
2022/10/24 18:52:18;;;;;;;;;;;14.10;99.90;;;;;;12544067;28;19924;-38
2022/10/24 18:58:20;;;;;;;;;;;14.10;99.90;;;;;;12543095;28;19925;-38
2022/10/24 19:04:23;;;;;;;;;;;14.10;99.90;;;;;;12535909;28;19929;-39
2022/10/24 19:10:26;;;;;;;;;;;14.10;99.90;;;;;;12536245;28;19924;-38
2022/10/24 19:16:28;;;;;;;;;;;14.10;99.90;;;;;;12541327;28;19932;-38
2022/10/24 19:22:33;;;;;;;;;;;14.10;99.90;;;;;;12532226;28;19925;-38
2022/10/24 19:28:34;;;;;;;;;;;14.20;99.90;;;;;;12549484;28;19932;-39
2022/10/24 19:34:36;;;;;;;;;;;14.10;99.90;;;;;;12560680;28;20470;-39
2022/10/24 19:40:53;;;;;;;;;;;14.10;99.90;;;;;;12552325;28;20407;-38
2022/10/24 19:46:54;;;;;;;;;;;14.10;99.90;;;;;;12554331;28;19925;-39
2022/10/24 19:52:56;;;;;;;;;;;14.00;99.90;;;;;;12543594;28;19925;-38
2022/10/24 19:58:58;;;;;;;;;;;14.10;99.90;;;;;;12550144;28;19932;-38
2022/10/24 20:05:00;;;;;;;;;;;14.00;99.90;;;;;;12555976;28;19925;-39
2022/10/24 20:11:02;;;;;;;;;;;14.10;99.90;;;;;;12548911;28;20373;-39
2022/10/24 20:17:04;;;;;;;;;;;14.10;99.90;;;;;;12552264;28;19931;-39
2022/10/24 20:23:05;;;;;;;;;;;14.20;99.90;;;;;;12538670;28;19935;-38
2022/10/24 20:29:07;;;;;;;;;;;14.20;99.90;;;;;;12554990;28;19946;-38
2022/10/24 20:35:09;;;;;;;;;;;14.10;99.90;;;;;;12552664;28;19928;-39
2022/10/24 20:41:11;;;;;;;;;;;14.00;99.90;;;;;;12545886;28;20343;-39
2022/10/24 20:47:13;;;;;;;;;;;14.10;99.90;;;;;;12550319;28;19929;-38
2022/10/24 20:53:14;;;;;;;;;;;14.10;99.90;;;;;;12547801;28;19932;-38
2022/10/24 20:59:16;;;;;;;;;;;14.10;99.90;;;;;;12554611;28;19929;-38
2022/10/24 21:05:18;;;;;;;;;;;14.00;99.90;;;;;;12531440;28;19925;-38
2022/10/24 21:11:25;;;;;;;;;;;14.00;99.90;;;;;;12554285;28;19925;-38
2022/10/24 21:17:27;;;;;;;;;;;13.90;99.90;;;;;;12548524;28;19925;-38
2022/10/24 21:23:28;;;;;;;;;;;13.80;99.90;;;;;;12546798;28;19936;-38
2022/10/24 21:29:30;;;;;;;;;;;13.70;99.90;;;;;;12546242;28;20007;-38
2022/10/24 21:35:36;;;;;;;;;;;13.60;99.90;;;;;;12549763;28;19928;-39
2022/10/24 21:41:38;;;;;;;;;;;13.70;99.90;;;;;;12544020;28;19929;-38
2022/10/24 21:47:40;;;;;;;;;;;13.60;99.90;;;;;;12558635;28;19932;-38
2022/10/24 21:53:43;;;;;;;;;;;13.50;99.90;;;;;;12544798;28;19929;-39
2022/10/24 21:59:45;;;;;;;;;;;13.50;99.90;;;;;;12530079;28;20303;-38
2022/10/24 22:05:50;;;;;;;;;;;13.50;99.90;;;;;;12542658;28;19932;-38
2022/10/24 22:11:56;;;;;;;;;;;13.50;99.90;;;;;;12559712;28;19925;-39
2022/10/24 22:17:58;;;;;;;;;;;13.50;99.90;;;;;;12551358;28;19924;-38
2022/10/24 22:24:05;;;;;;;;;;;13.60;99.90;;;;;;12528647;28;19924;-39
2022/10/24 22:30:08;;;;;;;;;;;13.60;99.90;;;;;;12542427;28;19956;-38
2022/10/24 22:36:15;;;;;;;;;;;13.40;99.90;;;;;;12544643;28;19929;-38
2022/10/24 22:42:17;;;;;;;;;;;13.20;99.90;;;;;;12555165;28;19924;-38
2022/10/24 22:48:26;;;;;;;;;;;13.10;99.90;;;;;;12551937;28;19924;-38
2022/10/24 22:54:31;;;;;;;;;;;13.00;99.90;;;;;;12541385;28;19933;-38
2022/10/24 23:00:33;;;;;;;;;;;13.00;99.90;;;;;;12542709;28;20281;-38
2022/10/24 23:06:44;;;;;;;;;;;13.00;99.90;;;;;;12550568;28;19960;-38
2022/10/24 23:12:47;;;;;;;;;;;13.00;99.90;;;;;;12545986;28;19929;-39
2022/10/24 23:18:48;;;;;;;;;;;12.90;99.90;;;;;;12557947;28;19929;-38
2022/10/24 23:24:51;;;;;;;;;;;13.00;99.90;;;;;;12554183;28;19928;-40
2022/10/24 23:30:54;;;;;;;;;;;13.00;99.90;;;;;;12558439;28;19928;-38
2022/10/24 23:36:58;;;;;;;;;;;12.90;99.90;;;;;;12555083;28;19932;-38
2022/10/24 23:43:02;;;;;;;;;;;13.00;99.90;;;;;;12544803;28;20296;-38
2022/10/24 23:49:04;;;;;;;;;;;13.10;99.90;;;;;;12552659;28;19931;-39
2022/10/24 23:55:08;;;;;;;;;;;13.10;99.90;;;;;;12555193;28;19971;-38
